createdAt,value
2023-04-26T00:01:43.207Z,12.43
2023-04-26T00:06:37.572Z,14.77
2023-04-26T00:09:05.266Z,11.40
2023-04-26T00:11:32.141Z,11.88
2023-04-26T00:13:59.751Z,12.00
2023-04-26T00:16:26.668Z,11.68
2023-04-26T00:18:54.721Z,12.65
2023-04-26T00:21:21.807Z,11.75
2023-04-26T00:23:48.773Z,10.10
2023-04-26T00:26:15.674Z,13.57
2023-04-26T00:28:42.662Z,11.80
2023-04-26T00:31:16.869Z,11.10
2023-04-26T00:33:44.368Z,11.77
2023-04-26T00:36:11.418Z,12.60
2023-04-26T00:38:38.228Z,11.32
2023-04-26T00:43:32.494Z,11.48
2023-04-26T00:48:26.467Z,10.88
2023-04-26T00:50:53.366Z,9.52
2023-04-26T00:53:21.061Z,10.77
2023-04-26T00:55:48.266Z,11.43
2023-04-26T00:58:15.142Z,13.60
2023-04-26T01:03:08.950Z,9.90
2023-04-26T01:05:36.938Z,10.93
2023-04-26T01:08:04.956Z,11.20
2023-04-26T01:10:35.448Z,11.25
2023-04-26T01:13:06.091Z,14.07
2023-04-26T01:15:33.716Z,12.10
2023-04-26T01:18:00.764Z,12.80
2023-04-26T01:20:27.742Z,10.02
2023-04-26T01:22:54.637Z,11.95
2023-04-26T01:25:21.641Z,12.50
2023-04-26T01:27:48.496Z,11.73
2023-04-26T01:32:42.071Z,13.07
2023-04-26T01:35:09.529Z,11.57
2023-04-26T01:37:36.491Z,13.00
2023-04-26T01:40:06.552Z,11.65
2023-04-26T01:42:33.463Z,14.55
2023-04-26T01:45:00.362Z,11.50
2023-04-26T01:47:27.766Z,12.48
2023-04-26T01:49:54.708Z,13.52
2023-04-26T01:52:22.839Z,13.45
2023-04-26T01:54:49.751Z,11.73
2023-04-26T01:57:16.763Z,12.57
2023-04-26T01:59:43.682Z,11.82
2023-04-26T02:02:10.777Z,10.93
2023-04-26T02:04:37.832Z,10.57
2023-04-26T02:07:04.704Z,13.38
2023-04-26T02:11:58.287Z,12.35
2023-04-26T02:16:52.103Z,13.25
2023-04-26T02:19:19.162Z,11.45
2023-04-26T02:21:56.469Z,13.68
2023-04-26T02:24:23.970Z,8.43
2023-04-26T02:26:52.008Z,11.43
2023-04-26T02:29:21.219Z,14.00
2023-04-26T02:31:53.815Z,11.23
2023-04-26T02:34:20.866Z,10.48
2023-04-26T02:36:48.808Z,12.07
2023-04-26T02:39:15.790Z,13.38
2023-04-26T02:41:42.640Z,11.93
2023-04-26T02:46:36.329Z,10.20
2023-04-26T02:49:03.346Z,12.23
2023-04-26T02:51:30.277Z,13.32
2023-04-26T02:53:57.148Z,11.60
2023-04-26T02:56:24.165Z,12.15
2023-04-26T02:58:51.646Z,12.37
2023-04-26T03:01:19.051Z,15.05
2023-04-26T03:03:45.982Z,15.48
2023-04-26T03:06:12.968Z,11.40
2023-04-26T03:11:07.026Z,10.02
2023-04-26T03:13:33.907Z,15.32
2023-04-26T03:16:00.867Z,11.80
2023-04-26T03:18:27.780Z,12.00
2023-04-26T03:20:54.647Z,13.05
2023-04-26T03:25:51.944Z,11.90
2023-04-26T03:28:18.819Z,12.40
2023-04-26T03:30:46.056Z,10.20
2023-04-26T03:33:13.816Z,12.32
2023-04-26T03:35:40.902Z,14.00
2023-04-26T03:38:07.792Z,14.23
2023-04-26T03:40:34.714Z,12.80
2023-04-26T03:43:01.788Z,11.12
2023-04-26T03:45:28.756Z,14.43
2023-04-26T03:47:56.913Z,10.65
2023-04-26T03:50:23.812Z,12.07
2023-04-26T03:55:17.545Z,11.57
2023-04-26T03:57:44.392Z,14.45
2023-04-26T04:02:41.971Z,11.98
2023-04-26T04:05:09.626Z,12.80
2023-04-26T04:07:36.764Z,12.02
2023-04-26T04:10:04.199Z,11.02
2023-04-26T04:12:31.156Z,14.87
2023-04-26T04:14:58.055Z,14.52
2023-04-26T04:17:24.948Z,11.60
2023-04-26T04:19:51.829Z,13.25
2023-04-26T04:22:18.680Z,11.85
2023-04-26T04:27:12.622Z,9.77
2023-04-26T04:29:41.078Z,14.38
2023-04-26T04:32:08.212Z,13.43
2023-04-26T04:34:36.415Z,16.55
2023-04-26T04:37:04.461Z,15.93
2023-04-26T04:39:31.469Z,12.20
2023-04-26T04:41:58.843Z,12.13
2023-04-26T04:44:27.150Z,12.40
2023-04-26T04:46:54.062Z,11.85
2023-04-26T04:49:21.071Z,12.20
2023-04-26T04:51:48.215Z,12.75
2023-04-26T04:54:16.808Z,14.23
2023-04-26T04:56:44.699Z,13.25
2023-04-26T04:59:11.996Z,12.52
2023-04-26T05:01:38.938Z,11.73
2023-04-26T05:04:07.008Z,10.95
2023-04-26T05:06:34.198Z,10.50
2023-04-26T05:09:01.892Z,11.48
2023-04-26T05:11:28.775Z,11.85
2023-04-26T05:13:55.966Z,11.02
2023-04-26T05:16:23.112Z,11.52
2023-04-26T05:18:50.093Z,9.13
2023-04-26T05:21:17.191Z,8.55
2023-04-26T05:23:44.099Z,11.43
2023-04-26T05:26:15.825Z,12.02
2023-04-26T05:28:42.969Z,12.35
2023-04-26T05:31:11.424Z,11.38
2023-04-26T05:33:38.684Z,14.30
2023-04-26T05:36:06.084Z,14.57
2023-04-26T05:38:32.983Z,11.63
2023-04-26T05:40:59.822Z,10.25
2023-04-26T05:43:26.658Z,11.35
2023-04-26T05:45:54.629Z,14.05
2023-04-26T05:48:23.006Z,10.93
2023-04-26T05:50:50.760Z,13.95
2023-04-26T05:53:19.249Z,14.45
2023-04-26T05:55:46.247Z,10.65
2023-04-26T05:58:13.214Z,11.77
2023-04-26T06:00:40.152Z,12.93
2023-04-26T06:03:07.362Z,10.65
2023-04-26T06:05:34.560Z,11.32
2023-04-26T06:08:01.875Z,10.68
2023-04-26T06:10:29.371Z,13.88
2023-04-26T06:12:56.453Z,9.95
2023-04-26T06:15:23.330Z,10.20
2023-04-26T06:17:50.246Z,11.18
2023-04-26T06:20:17.148Z,13.73
2023-04-26T06:22:44.021Z,12.18
2023-04-26T06:25:11.050Z,12.63
2023-04-26T06:27:39.413Z,11.15
2023-04-26T06:30:08.044Z,13.48
2023-04-26T06:32:35.083Z,10.98
2023-04-26T06:35:02.169Z,11.20
2023-04-26T06:37:29.045Z,10.48
2023-04-26T06:39:55.952Z,9.48
2023-04-26T06:42:22.841Z,9.82
2023-04-26T06:44:49.746Z,11.93
2023-04-26T06:47:16.603Z,8.13
2023-04-26T06:49:43.601Z,9.90
2023-04-26T06:52:10.539Z,9.88
2023-04-26T06:54:45.932Z,8.50
2023-04-26T06:57:16.898Z,10.70
2023-04-26T07:02:10.585Z,9.77
2023-04-26T07:04:37.750Z,11.63
2023-04-26T07:07:04.854Z,11.38
2023-04-26T07:09:31.896Z,8.30
2023-04-26T07:11:58.850Z,6.50
2023-04-26T07:14:25.707Z,6.53
2023-04-26T07:16:52.552Z,9.77
2023-04-26T07:19:19.928Z,9.30
2023-04-26T07:21:46.770Z,5.80
2023-04-26T07:24:13.891Z,5.60
2023-04-26T07:26:41.566Z,4.80
2023-04-26T07:29:08.450Z,5.28
2023-04-26T07:31:36.130Z,8.38
2023-04-26T07:34:03.247Z,6.37
2023-04-26T07:36:30.177Z,8.13
2023-04-26T07:38:58.042Z,6.30
2023-04-26T07:41:24.920Z,5.62
2023-04-26T07:43:51.996Z,4.43
2023-04-26T07:46:19.225Z,4.70
2023-04-26T07:48:46.142Z,5.60
2023-04-26T07:51:13.597Z,6.00
2023-04-26T07:53:41.360Z,5.50
2023-04-26T07:56:09.107Z,6.60
2023-04-26T07:58:37.042Z,8.32
2023-04-26T08:01:04.395Z,2.95
2023-04-26T08:03:31.730Z,5.57
2023-04-26T08:06:02.307Z,5.72
2023-04-26T08:08:29.365Z,4.22
2023-04-26T08:10:56.583Z,3.78
2023-04-26T08:13:23.446Z,3.90
2023-04-26T08:15:50.435Z,4.90
2023-04-26T08:18:17.767Z,6.07
2023-04-26T08:20:44.771Z,6.05
2023-04-26T08:23:11.700Z,3.05
2023-04-26T08:25:38.670Z,6.55
2023-04-26T08:28:05.662Z,5.35
2023-04-26T08:30:32.623Z,5.22
2023-04-26T08:32:59.556Z,7.40
2023-04-26T08:35:26.551Z,8.40
2023-04-26T08:37:53.406Z,5.57
2023-04-26T08:40:24.999Z,8.25
2023-04-26T08:42:53.740Z,5.30
2023-04-26T08:45:21.747Z,3.78
2023-04-26T08:47:50.592Z,6.35
2023-04-26T08:50:21.081Z,6.95
2023-04-26T08:52:50.528Z,5.68
2023-04-26T08:55:18.664Z,3.95
2023-04-26T08:57:49.951Z,3.75
2023-04-26T09:00:18.369Z,5.07
2023-04-26T09:02:50.329Z,7.15
2023-04-26T09:05:17.661Z,5.95
2023-04-26T09:07:48.198Z,6.85
2023-04-26T09:10:22.560Z,4.12
2023-04-26T09:12:53.761Z,4.65
2023-04-26T09:15:24.758Z,4.57
2023-04-26T09:17:52.356Z,8.05
2023-04-26T09:20:31.303Z,3.92
2023-04-26T09:23:06.844Z,3.87
2023-04-26T09:25:34.135Z,5.15
2023-04-26T09:28:02.225Z,4.35
2023-04-26T09:30:29.259Z,8.07
2023-04-26T09:32:58.463Z,6.28
2023-04-26T09:35:29.338Z,8.10
2023-04-26T09:38:09.701Z,10.77
2023-04-26T09:40:41.902Z,6.65
2023-04-26T09:43:12.623Z,8.18
2023-04-26T09:45:46.655Z,4.93
2023-04-26T09:48:18.030Z,7.62
2023-04-26T09:50:48.236Z,6.75
2023-04-26T09:53:31.212Z,5.30
2023-04-26T09:56:15.867Z,6.03
2023-04-26T09:58:52.610Z,7.93
2023-04-26T10:01:20.335Z,5.90
2023-04-26T10:03:47.789Z,6.72
2023-04-26T10:06:15.060Z,4.97
2023-04-26T10:08:42.167Z,5.87
2023-04-26T10:11:13.125Z,8.73
2023-04-26T10:13:41.745Z,6.30
2023-04-26T10:16:10.237Z,7.15
2023-04-26T10:18:37.860Z,5.87
2023-04-26T10:21:20.798Z,8.40
2023-04-26T10:23:49.292Z,5.90
2023-04-26T10:26:49.745Z,5.85
2023-04-26T10:29:16.693Z,6.65
2023-04-26T10:32:02.390Z,7.47
2023-04-26T10:34:33.370Z,5.20
2023-04-26T10:37:10.401Z,7.47
2023-04-26T10:39:38.236Z,5.72
2023-04-26T10:42:37.851Z,6.22
2023-04-26T10:45:26.081Z,6.62
2023-04-26T10:48:27.965Z,6.93
2023-04-26T10:51:12.219Z,7.00
2023-04-26T10:53:44.917Z,7.85
2023-04-26T10:56:41.297Z,5.75
2023-04-26T11:01:42.200Z,4.35
2023-04-26T11:04:10.698Z,11.05
2023-04-26T11:07:07.744Z,7.43
2023-04-26T11:09:42.530Z,4.93
2023-04-26T11:12:14.001Z,5.07
2023-04-26T11:14:46.343Z,5.65
2023-04-26T11:17:13.413Z,5.93
2023-04-26T11:19:41.651Z,5.30
2023-04-26T11:22:08.854Z,7.10
2023-04-26T11:24:44.947Z,6.03
2023-04-26T11:27:12.304Z,5.10
2023-04-26T11:29:39.568Z,6.80
2023-04-26T11:32:07.220Z,4.93
2023-04-26T11:34:35.676Z,6.80
2023-04-26T11:37:05.119Z,5.72
2023-04-26T11:39:36.166Z,5.05
2023-04-26T11:42:10.298Z,5.18
2023-04-26T11:44:37.889Z,6.30
2023-04-26T11:47:06.220Z,5.95
2023-04-26T11:49:33.915Z,9.27
2023-04-26T11:52:01.723Z,5.95
2023-04-26T11:54:33.498Z,5.55
2023-04-26T11:57:00.501Z,4.32
2023-04-26T11:59:29.613Z,5.30
2023-04-26T12:02:00.741Z,6.37
2023-04-26T12:04:30.423Z,9.20
2023-04-26T12:06:58.153Z,5.80
2023-04-26T12:09:28.097Z,11.23
2023-04-26T12:12:02.230Z,6.72
2023-04-26T12:14:37.291Z,5.78
2023-04-26T12:17:06.409Z,7.00
2023-04-26T12:19:40.309Z,5.50
2023-04-26T12:22:07.934Z,6.53
2023-04-26T12:24:37.098Z,4.60
2023-04-26T12:27:06.255Z,9.18
2023-04-26T12:29:33.212Z,7.07
2023-04-26T12:32:00.512Z,5.85
2023-04-26T12:34:27.550Z,5.32
2023-04-26T12:36:55.022Z,6.28
2023-04-26T12:39:21.897Z,4.10
2023-04-26T12:41:49.364Z,8.30
2023-04-26T12:44:16.350Z,6.12
2023-04-26T12:46:43.321Z,12.37
2023-04-26T12:49:10.358Z,6.97
2023-04-26T12:51:37.214Z,5.43
2023-04-26T12:54:04.268Z,5.25
2023-04-26T12:56:31.213Z,4.75
2023-04-26T12:58:58.127Z,5.32
2023-04-26T13:01:25.196Z,4.68
2023-04-26T13:03:52.360Z,5.53
2023-04-26T13:06:19.357Z,6.30
2023-04-26T13:08:46.256Z,5.90
2023-04-26T13:11:13.144Z,5.28
2023-04-26T13:13:43.708Z,7.18
2023-04-26T13:16:13.046Z,14.45
2023-04-26T13:18:40.674Z,6.93
2023-04-26T13:21:07.880Z,6.87
2023-04-26T13:23:34.913Z,5.18
2023-04-26T13:26:02.069Z,5.55
2023-04-26T13:28:28.936Z,5.03
2023-04-26T13:30:56.192Z,4.70
2023-04-26T13:33:23.274Z,5.28
2023-04-26T13:35:50.184Z,5.57
2023-04-26T13:38:17.483Z,6.37
2023-04-26T13:40:44.898Z,6.97
2023-04-26T13:43:11.835Z,5.87
2023-04-26T13:45:38.952Z,6.47
2023-04-26T13:48:06.055Z,8.77
2023-04-26T13:50:32.990Z,7.60
2023-04-26T13:53:00.135Z,4.80
2023-04-26T13:55:27.044Z,6.47
2023-04-26T13:57:53.944Z,6.22
2023-04-26T14:00:21.252Z,5.03
2023-04-26T14:02:49.442Z,4.53
2023-04-26T14:05:16.761Z,5.45
2023-04-26T14:07:43.881Z,10.65
2023-04-26T14:10:11.150Z,4.18
2023-04-26T14:12:38.049Z,4.78
2023-04-26T14:15:06.354Z,5.37
2023-04-26T14:17:33.665Z,5.43
2023-04-26T14:20:00.833Z,4.40
2023-04-26T14:22:27.845Z,7.50
2023-04-26T14:24:54.729Z,4.90
2023-04-26T14:27:21.592Z,5.32
2023-04-26T14:29:48.432Z,6.10
2023-04-26T14:32:15.392Z,9.45
2023-04-26T14:34:43.190Z,5.60
2023-04-26T14:37:10.597Z,5.80
2023-04-26T14:39:37.680Z,6.10
2023-04-26T14:42:04.924Z,4.32
2023-04-26T14:44:31.812Z,4.72
2023-04-26T14:46:58.745Z,4.60
2023-04-26T14:49:25.905Z,5.22
2023-04-26T14:51:53.655Z,6.35
2023-04-26T14:54:21.350Z,5.03
2023-04-26T14:56:48.914Z,6.80
2023-04-26T14:59:16.301Z,8.38
2023-04-26T15:01:43.438Z,5.15
2023-04-26T15:04:10.526Z,5.80
2023-04-26T15:06:37.552Z,8.70
2023-04-26T15:09:04.735Z,7.55
2023-04-26T15:11:31.592Z,7.03
2023-04-26T15:13:58.433Z,6.18
2023-04-26T15:16:25.375Z,3.92
2023-04-26T15:18:52.381Z,5.70
2023-04-26T15:21:19.931Z,6.82
2023-04-26T15:23:46.840Z,7.32
2023-04-26T15:26:14.520Z,7.82
2023-04-26T15:28:41.465Z,5.35
2023-04-26T15:31:09.836Z,5.03
2023-04-26T15:33:37.013Z,5.47
2023-04-26T15:36:04.175Z,6.57
2023-04-26T15:38:31.066Z,6.85
2023-04-26T15:40:57.917Z,5.87
2023-04-26T15:43:24.864Z,6.35
2023-04-26T15:45:51.932Z,4.97
2023-04-26T15:48:18.937Z,5.55
2023-04-26T15:50:46.421Z,5.18
2023-04-26T15:53:13.313Z,5.53
2023-04-26T15:55:40.213Z,8.55
2023-04-26T15:58:07.257Z,5.78
2023-04-26T16:00:34.408Z,5.10
2023-04-26T16:03:02.190Z,6.00
2023-04-26T16:05:29.299Z,6.03
2023-04-26T16:07:56.466Z,6.45
2023-04-26T16:10:24.058Z,4.82
2023-04-26T16:12:51.131Z,6.37
2023-04-26T16:15:18.020Z,6.82
2023-04-26T16:17:45.060Z,7.18
2023-04-26T16:20:12.181Z,5.72
2023-04-26T16:22:39.128Z,7.35
2023-04-26T16:25:07.168Z,6.72
2023-04-26T16:27:34.301Z,5.22
2023-04-26T16:30:01.390Z,6.90
2023-04-26T16:32:30.731Z,5.95
2023-04-26T16:34:57.629Z,9.45
2023-04-26T16:37:24.566Z,6.37
2023-04-26T16:39:55.783Z,7.10
2023-04-26T16:42:22.850Z,6.75
2023-04-26T16:44:49.741Z,6.80
2023-04-26T16:47:16.619Z,5.53
2023-04-26T16:49:43.570Z,8.60
2023-04-26T16:52:10.488Z,5.93
2023-04-26T16:54:37.470Z,6.10
2023-04-26T16:57:04.689Z,7.78
2023-04-26T16:59:31.611Z,5.72
2023-04-26T17:01:58.614Z,5.50
2023-04-26T17:04:26.479Z,6.45
2023-04-26T17:06:54.698Z,7.72
2023-04-26T17:09:21.571Z,7.12
2023-04-26T17:11:49.997Z,8.73
2023-04-26T17:14:16.915Z,6.22
2023-04-26T17:16:44.215Z,6.25
2023-04-26T17:19:11.387Z,6.40
2023-04-26T17:21:38.257Z,5.95
2023-04-26T17:24:05.340Z,5.53
2023-04-26T17:26:32.256Z,9.73
2023-04-26T17:28:59.228Z,5.95
2023-04-26T17:31:26.342Z,4.47
2023-04-26T17:33:53.269Z,4.95
2023-04-26T17:36:20.974Z,6.97
2023-04-26T17:38:48.690Z,7.03
2023-04-26T17:41:18.203Z,6.72
2023-04-26T17:43:45.518Z,5.70
2023-04-26T17:46:12.591Z,7.85
2023-04-26T17:48:39.762Z,3.92
2023-04-26T17:51:06.843Z,6.32
2023-04-26T17:53:36.897Z,6.93
2023-04-26T17:56:07.372Z,6.18
2023-04-26T17:58:34.529Z,7.35
2023-04-26T18:01:01.635Z,7.00
2023-04-26T18:03:31.702Z,7.25
2023-04-26T18:05:58.789Z,7.30
2023-04-26T18:08:25.978Z,7.07
2023-04-26T18:10:54.150Z,7.20
2023-04-26T18:13:21.179Z,6.93
2023-04-26T18:15:48.370Z,8.95
2023-04-26T18:18:15.364Z,8.23
2023-04-26T18:20:42.364Z,4.95
2023-04-26T18:23:09.234Z,5.97
2023-04-26T18:25:36.426Z,5.18
2023-04-26T18:28:04.520Z,6.80
2023-04-26T18:30:34.223Z,9.20
2023-04-26T18:33:01.181Z,6.47
2023-04-26T18:35:28.161Z,5.12
2023-04-26T18:37:55.117Z,6.93
2023-04-26T18:40:22.065Z,5.75
2023-04-26T18:42:48.921Z,10.80
2023-04-26T18:45:16.055Z,7.43
2023-04-26T18:47:42.943Z,6.43
2023-04-26T18:50:10.092Z,6.45
2023-04-26T18:52:39.687Z,5.12
2023-04-26T18:55:07.770Z,8.23
2023-04-26T18:57:34.612Z,8.27
2023-04-26T19:00:01.844Z,7.65
2023-04-26T19:02:28.908Z,7.20
2023-04-26T19:04:56.083Z,6.68
2023-04-26T19:07:23.762Z,6.32
2023-04-26T19:09:54.702Z,5.97
2023-04-26T19:12:22.484Z,6.80
2023-04-26T19:14:49.339Z,8.45
2023-04-26T19:17:16.369Z,7.10
2023-04-26T19:19:43.442Z,5.32
2023-04-26T19:22:10.463Z,7.00
2023-04-26T19:24:37.406Z,6.40
2023-04-26T19:27:06.593Z,6.15
2023-04-26T19:29:33.452Z,7.43
2023-04-26T19:32:00.533Z,9.18
2023-04-26T19:34:28.109Z,7.50
2023-04-26T19:36:55.069Z,6.00
2023-04-26T19:39:23.553Z,7.90
2023-04-26T19:41:51.406Z,10.45
2023-04-26T19:44:20.438Z,8.38
2023-04-26T19:46:47.366Z,8.02
2023-04-26T19:49:14.334Z,9.93
2023-04-26T19:51:41.232Z,7.93
2023-04-26T19:54:08.070Z,9.25
2023-04-26T19:59:01.579Z,8.13
2023-04-26T20:01:28.710Z,7.20
2023-04-26T20:03:55.983Z,9.60
2023-04-26T20:06:22.953Z,9.98
2023-04-26T20:08:49.834Z,5.62
2023-04-26T20:11:17.610Z,8.85
2023-04-26T20:13:44.743Z,8.95
2023-04-26T20:16:12.852Z,8.90
2023-04-26T20:18:39.991Z,6.75
2023-04-26T20:21:06.915Z,7.75
2023-04-26T20:23:34.024Z,8.57
2023-04-26T20:26:01.068Z,10.82
2023-04-26T20:28:27.952Z,9.15
2023-04-26T20:30:54.977Z,10.18
2023-04-26T20:33:21.938Z,22.95
2023-04-26T20:35:49.434Z,21.23
2023-04-26T20:38:16.310Z,22.52
2023-04-26T20:40:43.361Z,26.52
2023-04-26T20:43:12.103Z,20.55
2023-04-26T20:45:41.029Z,17.25
2023-04-26T20:48:08.325Z,15.15
2023-04-26T20:50:36.603Z,14.05
2023-04-26T20:53:04.368Z,10.85
2023-04-26T20:55:31.251Z,9.63
2023-04-26T20:57:58.114Z,11.38
2023-04-26T21:00:25.075Z,9.13
2023-04-26T21:02:52.182Z,8.40
2023-04-26T21:05:19.093Z,9.35
2023-04-26T21:10:12.883Z,11.20
2023-04-26T21:12:41.825Z,11.18
2023-04-26T21:15:09.128Z,11.43
2023-04-26T21:17:36.486Z,10.65
2023-04-26T21:20:04.379Z,8.65
2023-04-26T21:22:31.266Z,10.35
2023-04-26T21:24:58.124Z,10.55
2023-04-26T21:27:25.100Z,13.52
2023-04-26T21:29:51.972Z,10.70
2023-04-26T21:32:18.804Z,9.80
2023-04-26T21:37:12.444Z,7.78
2023-04-26T21:39:39.358Z,8.90
2023-04-26T21:42:06.324Z,7.32
2023-04-26T21:44:33.160Z,9.07
2023-04-26T21:49:26.940Z,9.68
2023-04-26T21:54:20.564Z,7.68
2023-04-26T21:56:47.404Z,10.20
2023-04-26T22:01:41.636Z,10.93
2023-04-26T22:06:35.299Z,8.10
2023-04-26T22:11:28.801Z,9.45
2023-04-26T22:16:22.490Z,9.10
2023-04-26T22:18:49.446Z,7.50
2023-04-26T22:21:16.279Z,12.13
2023-04-26T22:26:09.773Z,8.10
2023-04-26T22:31:03.528Z,6.35
2023-04-26T22:33:30.403Z,7.72
2023-04-26T22:35:58.203Z,6.62
2023-04-26T22:38:25.612Z,7.12
2023-04-26T22:40:52.754Z,7.53
2023-04-26T22:43:19.660Z,8.38
2023-04-26T22:45:46.541Z,8.40
2023-04-26T22:48:13.515Z,9.05
2023-04-26T22:50:40.704Z,6.97
2023-04-26T22:53:08.351Z,8.27
2023-04-26T22:55:35.241Z,7.87
2023-04-26T22:58:02.137Z,8.30
2023-04-26T23:00:29.013Z,9.13
2023-04-26T23:02:56.087Z,7.70
2023-04-26T23:05:23.061Z,9.70
2023-04-26T23:07:49.982Z,8.95
2023-04-26T23:10:16.896Z,9.57
2023-04-26T23:12:43.793Z,9.77
2023-04-26T23:15:11.748Z,7.87
2023-04-26T23:17:39.008Z,8.35
2023-04-26T23:20:12.365Z,8.95
2023-04-26T23:22:40.604Z,9.27
2023-04-26T23:25:08.949Z,7.10
2023-04-26T23:27:36.216Z,8.10
2023-04-26T23:30:03.742Z,8.25
2023-04-26T23:32:31.118Z,9.10
2023-04-26T23:34:58.018Z,8.98
2023-04-26T23:37:25.050Z,8.25
2023-04-26T23:39:52.305Z,7.75
2023-04-26T23:42:19.175Z,7.90
2023-04-26T23:44:46.168Z,9.57
2023-04-26T23:47:13.102Z,9.52
2023-04-26T23:49:39.967Z,9.55
2023-04-26T23:52:07.328Z,8.35
2023-04-26T23:54:34.234Z,11.02
2023-04-26T23:57:01.228Z,10.70
2023-04-26T23:59:28.124Z,11.18
